LIPZ/VCE METAR and TAF weather

Enter ICAO airport designator
Station Type Date Time Source
LIPZ METAR 2020/02/19 13:50 UTC NOAA

LIPZ 191350Z 19003KT 140V230 CAVOK 13/05 Q1017 NOSIG


Station Type Date Time Source
LIPZ Decoded METAR 2020/02/19 13:50 UTC NOAA

Venezia / Tessera, Italy (LIPZ) 45-30N 012-20E 6M
Feb 19, 2020 - 08:50 AM EST / 2020.02.19 1350 UTC
Wind: from the S (190 degrees) at 3 MPH (3 KT) (direction variable):0
Visibility: greater than 7 mile(s):0
Temperature: 55 F (13 C)
Dew Point: 41 F (5 C)
Relative Humidity: 58%
Pressure (altimeter): 30.03 in. Hg (1017 hPa)
ob: LIPZ 191350Z 19003KT 140V230 CAVOK 13/05 Q1017 NOSIG
cycle: 14

Station Type Date Time Source
LIPZ TAF 2020/02/19 12:21 UTC NOAA

TAF LIPZ 191100Z 1912/2018 06010KT 9999 SCT040
BECMG 1916/1918 VRB05KT 4000 BR

Example: see airport list